sensor_id;sensor_type;location;lat;lon;timestamp;pressure;altitude;pressure_sealevel;temperature;humidity
11987;BME280;6053;51.382;6.768;2023-03-19T00:01:03;100782.50;;;15.50;91.53
11987;BME280;6053;51.382;6.768;2023-03-19T00:03:32;100789.22;;;15.59;91.00
11987;BME280;6053;51.382;6.768;2023-03-19T00:06:02;100795.25;;;15.19;88.89
11987;BME280;6053;51.382;6.768;2023-03-19T00:08:32;100794.38;;;14.91;95.30
11987;BME280;6053;51.382;6.768;2023-03-19T00:11:05;100803.03;;;15.17;93.47
11987;BME280;6053;51.382;6.768;2023-03-19T00:13:34;100809.94;;;15.41;91.50
11987;BME280;6053;51.382;6.768;2023-03-19T00:16:03;100806.84;;;14.89;93.24
11987;BME280;6053;51.382;6.768;2023-03-19T00:18:32;100815.50;;;14.92;95.01
11987;BME280;6053;51.382;6.768;2023-03-19T00:21:00;100828.28;;;15.15;93.01
11987;BME280;6053;51.382;6.768;2023-03-19T00:23:29;100823.72;;;15.04;93.49
11987;BME280;6053;51.382;6.768;2023-03-19T00:25:58;100812.97;;;14.47;96.85
11987;BME280;6053;51.382;6.768;2023-03-19T00:28:27;100801.72;;;14.53;98.23
11987;BME280;6053;51.382;6.768;2023-03-19T00:30:56;100785.19;;;14.85;97.09
11987;BME280;6053;51.382;6.768;2023-03-19T00:33:25;100777.00;;;15.01;96.87
11987;BME280;6053;51.382;6.768;2023-03-19T00:35:53;100787.28;;;15.00;94.40
11987;BME280;6053;51.382;6.768;2023-03-19T00:38:21;100787.66;;;15.09;94.43
11987;BME280;6053;51.382;6.768;2023-03-19T00:40:50;100791.28;;;15.09;94.38
11987;BME280;6053;51.382;6.768;2023-03-19T00:43:19;100803.03;;;15.17;93.79
11987;BME280;6053;51.382;6.768;2023-03-19T00:45:48;100805.91;;;15.27;93.05
11987;BME280;6053;51.382;6.768;2023-03-19T00:48:17;100805.00;;;15.21;93.39
11987;BME280;6053;51.382;6.768;2023-03-19T00:50:45;100799.72;;;15.20;93.31
11987;BME280;6053;51.382;6.768;2023-03-19T00:53:14;100805.63;;;15.28;92.76
11987;BME280;6053;51.382;6.768;2023-03-19T00:55:42;100797.56;;;15.27;92.78
11987;BME280;6053;51.382;6.768;2023-03-19T00:58:11;100792.53;;;15.24;92.99
11987;BME280;6053;51.382;6.768;2023-03-19T01:00:40;100789.91;;;15.39;91.83
11987;BME280;6053;51.382;6.768;2023-03-19T01:03:09;100784.56;;;15.32;92.34
11987;BME280;6053;51.382;6.768;2023-03-19T01:05:37;100782.25;;;15.24;92.55
11987;BME280;6053;51.382;6.768;2023-03-19T01:08:06;100779.88;;;15.11;93.77
11987;BME280;6053;51.382;6.768;2023-03-19T01:10:34;100777.94;;;15.12;93.48
11987;BME280;6053;51.382;6.768;2023-03-19T01:13:02;100781.84;;;15.11;92.83
11987;BME280;6053;51.382;6.768;2023-03-19T01:15:34;100792.94;;;15.11;93.74
11987;BME280;6053;51.382;6.768;2023-03-19T01:18:04;100792.66;;;15.12;93.46
11987;BME280;6053;51.382;6.768;2023-03-19T01:20:34;100798.22;;;15.12;93.63
11987;BME280;6053;51.382;6.768;2023-03-19T01:23:03;100788.50;;;15.09;93.56
11987;BME280;6053;51.382;6.768;2023-03-19T01:25:32;100792.94;;;15.11;93.31
11987;BME280;6053;51.382;6.768;2023-03-19T01:28:00;100791.84;;;15.12;93.26
11987;BME280;6053;51.382;6.768;2023-03-19T01:30:29;100794.41;;;15.18;92.75
11987;BME280;6053;51.382;6.768;2023-03-19T01:32:58;100788.09;;;15.23;92.36
11987;BME280;6053;51.382;6.768;2023-03-19T01:35:28;100771.44;;;15.28;91.99
11987;BME280;6053;51.382;6.768;2023-03-19T01:37:56;100768.03;;;15.21;92.33
11987;BME280;6053;51.382;6.768;2023-03-19T01:40:24;100766.50;;;15.08;93.20
11987;BME280;6053;51.382;6.768;2023-03-19T01:42:55;100777.41;;;15.15;92.73
11987;BME280;6053;51.382;6.768;2023-03-19T01:45:32;100771.34;;;15.18;92.57
11987;BME280;6053;51.382;6.768;2023-03-19T01:48:01;100767.84;;;15.27;91.77
11987;BME280;6053;51.382;6.768;2023-03-19T01:50:38;100768.97;;;15.31;91.45
11987;BME280;6053;51.382;6.768;2023-03-19T01:53:10;100770.13;;;15.36;91.13
11987;BME280;6053;51.382;6.768;2023-03-19T01:55:40;100768.19;;;15.36;90.87
11987;BME280;6053;51.382;6.768;2023-03-19T01:58:09;100770.09;;;15.30;91.09
11987;BME280;6053;51.382;6.768;2023-03-19T02:00:38;100770.88;;;15.26;91.25
11987;BME280;6053;51.382;6.768;2023-03-19T02:03:06;100765.06;;;15.27;91.25
11987;BME280;6053;51.382;6.768;2023-03-19T02:05:37;100760.06;;;15.29;91.36
11987;BME280;6053;51.382;6.768;2023-03-19T02:08:10;100754.97;;;15.21;91.69
11987;BME280;6053;51.382;6.768;2023-03-19T02:10:40;100758.66;;;15.27;91.30
11987;BME280;6053;51.382;6.768;2023-03-19T02:13:09;100762.00;;;15.29;91.25
11987;BME280;6053;51.382;6.768;2023-03-19T02:15:38;100769.81;;;15.32;90.85
11987;BME280;6053;51.382;6.768;2023-03-19T02:18:07;100769.50;;;15.28;91.01
11987;BME280;6053;51.382;6.768;2023-03-19T02:20:45;100768.66;;;15.28;90.93
11987;BME280;6053;51.382;6.768;2023-03-19T02:23:27;100770.03;;;15.25;91.16
11987;BME280;6053;51.382;6.768;2023-03-19T02:26:06;100773.09;;;15.29;90.88
11987;BME280;6053;51.382;6.768;2023-03-19T02:28:38;100764.00;;;15.33;90.69
11987;BME280;6053;51.382;6.768;2023-03-19T02:31:09;100764.44;;;15.20;91.27
11987;BME280;6053;51.382;6.768;2023-03-19T02:33:38;100749.94;;;15.18;91.42
11987;BME280;6053;51.382;6.768;2023-03-19T02:36:11;100749.94;;;15.18;91.48
11987;BME280;6053;51.382;6.768;2023-03-19T02:38:42;100752.81;;;15.28;90.83
11987;BME280;6053;51.382;6.768;2023-03-19T02:41:13;100753.63;;;15.24;90.99
11987;BME280;6053;51.382;6.768;2023-03-19T02:43:41;100756.72;;;15.27;90.84
11987;BME280;6053;51.382;6.768;2023-03-19T02:46:12;100751.78;;;15.35;90.29
11987;BME280;6053;51.382;6.768;2023-03-19T02:48:40;100753.94;;;15.27;90.54
11987;BME280;6053;51.382;6.768;2023-03-19T02:51:09;100759.78;;;15.26;90.48
11987;BME280;6053;51.382;6.768;2023-03-19T02:53:39;100764.22;;;15.27;90.48
11987;BME280;6053;51.382;6.768;2023-03-19T02:56:08;100755.88;;;15.27;90.36
11987;BME280;6053;51.382;6.768;2023-03-19T02:58:37;100759.81;;;15.31;90.14
11987;BME280;6053;51.382;6.768;2023-03-19T03:01:06;100757.84;;;15.31;89.77
11987;BME280;6053;51.382;6.768;2023-03-19T03:03:34;100754.22;;;15.26;90.37
11987;BME280;6053;51.382;6.768;2023-03-19T03:06:03;100762.00;;;15.29;90.08
11987;BME280;6053;51.382;6.768;2023-03-19T03:08:32;100757.50;;;15.23;90.32
11987;BME280;6053;51.382;6.768;2023-03-19T03:11:00;100760.00;;;15.24;90.54
11987;BME280;6053;51.382;6.768;2023-03-19T03:13:28;100766.16;;;15.26;90.30
11987;BME280;6053;51.382;6.768;2023-03-19T03:15:58;100767.84;;;15.27;90.22
11987;BME280;6053;51.382;6.768;2023-03-19T03:18:27;100762.56;;;15.26;89.99
11987;BME280;6053;51.382;6.768;2023-03-19T03:20:56;100766.91;;;15.17;90.34
11987;BME280;6053;51.382;6.768;2023-03-19T03:23:24;100764.97;;;15.22;89.93
11987;BME280;6053;51.382;6.768;2023-03-19T03:25:53;100769.16;;;15.20;90.10
11987;BME280;6053;51.382;6.768;2023-03-19T03:28:22;100771.66;;;15.21;90.37
11987;BME280;6053;51.382;6.768;2023-03-19T03:30:50;100778.34;;;15.25;90.06
11987;BME280;6053;51.382;6.768;2023-03-19T03:33:26;100773.09;;;15.29;89.94
11987;BME280;6053;51.382;6.768;2023-03-19T03:35:54;100780.50;;;15.18;90.36
11987;BME280;6053;51.382;6.768;2023-03-19T03:38:23;100779.44;;;15.19;90.38
11987;BME280;6053;51.382;6.768;2023-03-19T03:40:52;100784.78;;;15.26;90.12
11987;BME280;6053;51.382;6.768;2023-03-19T03:43:21;100776.44;;;15.26;89.75
11987;BME280;6053;51.382;6.768;2023-03-19T03:45:49;100788.94;;;15.28;88.92
11987;BME280;6053;51.382;6.768;2023-03-19T03:48:17;100781.09;;;15.20;90.04
11987;BME280;6053;51.382;6.768;2023-03-19T03:50:47;100785.97;;;15.08;89.50
11987;BME280;6053;51.382;6.768;2023-03-19T03:53:16;100786.44;;;15.00;91.04
11987;BME280;6053;51.382;6.768;2023-03-19T03:55:44;100795.66;;;15.05;90.39
11987;BME280;6053;51.382;6.768;2023-03-19T03:58:12;100801.66;;;15.19;89.84
11987;BME280;6053;51.382;6.768;2023-03-19T04:00:41;100801.00;;;15.12;89.74
11987;BME280;6053;51.382;6.768;2023-03-19T04:03:09;100803.06;;;15.22;89.69
11987;BME280;6053;51.382;6.768;2023-03-19T04:05:37;100798.13;;;15.02;85.94
11987;BME280;6053;51.382;6.768;2023-03-19T04:08:07;100797.41;;;15.12;89.75
11987;BME280;6053;51.382;6.768;2023-03-19T04:10:39;100808.56;;;15.17;89.45
11987;BME280;6053;51.382;6.768;2023-03-19T04:13:08;100801.06;;;15.17;89.82
11987;BME280;6053;51.382;6.768;2023-03-19T04:15:36;100793.13;;;15.26;88.40
11987;BME280;6053;51.382;6.768;2023-03-19T04:18:05;100793.97;;;15.04;88.06
11987;BME280;6053;51.382;6.768;2023-03-19T04:20:33;100797.59;;;15.05;88.52
11987;BME280;6053;51.382;6.768;2023-03-19T04:23:02;100804.03;;;14.83;88.09
11987;BME280;6053;51.382;6.768;2023-03-19T04:25:32;100808.47;;;14.84;91.19
11987;BME280;6053;51.382;6.768;2023-03-19T04:28:00;100810.09;;;15.02;90.72
11987;BME280;6053;51.382;6.768;2023-03-19T04:30:29;100812.59;;;14.82;89.70
11987;BME280;6053;51.382;6.768;2023-03-19T04:33:01;100805.63;;;14.57;91.09
11987;BME280;6053;51.382;6.768;2023-03-19T04:35:29;100816.88;;;14.90;90.43
11987;BME280;6053;51.382;6.768;2023-03-19T04:37:58;100825.44;;;15.10;90.24
11987;BME280;6053;51.382;6.768;2023-03-19T04:40:26;100819.41;;;14.69;88.46
11987;BME280;6053;51.382;6.768;2023-03-19T04:42:56;100820.34;;;14.58;92.53
11987;BME280;6053;51.382;6.768;2023-03-19T04:45:24;100815.38;;;14.82;90.45
11987;BME280;6053;51.382;6.768;2023-03-19T04:47:53;100823.06;;;14.97;91.04
11987;BME280;6053;51.382;6.768;2023-03-19T04:50:22;100819.69;;;15.17;89.55
11987;BME280;6053;51.382;6.768;2023-03-19T04:52:51;100821.00;;;14.26;90.67
11987;BME280;6053;51.382;6.768;2023-03-19T04:55:19;100825.34;;;14.39;94.21
11987;BME280;6053;51.382;6.768;2023-03-19T04:57:47;100825.16;;;14.63;91.41
11987;BME280;6053;51.382;6.768;2023-03-19T05:00:19;100821.94;;;13.81;90.29
11987;BME280;6053;51.382;6.768;2023-03-19T05:02:47;100826.31;;;14.11;93.35
11987;BME280;6053;51.382;6.768;2023-03-19T05:05:16;100826.75;;;14.58;90.88
11987;BME280;6053;51.382;6.768;2023-03-19T05:07:44;100822.50;;;14.34;92.74
11987;BME280;6053;51.382;6.768;2023-03-19T05:10:13;100829.69;;;14.52;93.33
11987;BME280;6053;51.382;6.768;2023-03-19T05:12:41;100823.91;;;14.53;93.32
11987;BME280;6053;51.382;6.768;2023-03-19T05:15:10;100838.84;;;14.91;91.32
11987;BME280;6053;51.382;6.768;2023-03-19T05:17:40;100838.56;;;15.15;90.03
11987;BME280;6053;51.382;6.768;2023-03-19T05:20:10;100837.47;;;15.16;89.32
11987;BME280;6053;51.382;6.768;2023-03-19T05:22:40;100845.38;;;14.80;92.35
11987;BME280;6053;51.382;6.768;2023-03-19T05:25:08;100846.06;;;14.70;89.01
11987;BME280;6053;51.382;6.768;2023-03-19T05:27:37;100841.88;;;14.29;94.39
11987;BME280;6053;51.382;6.768;2023-03-19T05:30:07;100848.38;;;14.78;92.45
11987;BME280;6053;51.382;6.768;2023-03-19T05:32:37;100842.72;;;14.90;90.26
11987;BME280;6053;51.382;6.768;2023-03-19T05:35:08;100836.97;;;14.53;89.49
11987;BME280;6053;51.382;6.768;2023-03-19T05:37:37;100844.31;;;14.08;94.83
11987;BME280;6053;51.382;6.768;2023-03-19T05:40:06;100846.22;;;14.08;97.26
11987;BME280;6053;51.382;6.768;2023-03-19T05:42:35;100853.03;;;14.34;96.01
11987;BME280;6053;51.382;6.768;2023-03-19T05:45:04;100858.19;;;14.08;95.86
11987;BME280;6053;51.382;6.768;2023-03-19T05:47:33;100856.97;;;14.38;96.51
11987;BME280;6053;51.382;6.768;2023-03-19T05:50:02;100858.75;;;14.27;96.83
11987;BME280;6053;51.382;6.768;2023-03-19T05:52:32;100870.28;;;14.36;94.87
11987;BME280;6053;51.382;6.768;2023-03-19T05:55:01;100858.16;;;13.75;97.12
11987;BME280;6053;51.382;6.768;2023-03-19T05:57:30;100861.28;;;12.92;100.00
11987;BME280;6053;51.382;6.768;2023-03-19T05:59:58;100869.03;;;13.93;100.00
11987;BME280;6053;51.382;6.768;2023-03-19T06:02:27;100874.53;;;13.59;100.00
11987;BME280;6053;51.382;6.768;2023-03-19T06:04:56;100863.31;;;13.83;100.00
11987;BME280;6053;51.382;6.768;2023-03-19T06:07:24;100863.59;;;13.53;100.00
11987;BME280;6053;51.382;6.768;2023-03-19T06:09:54;100866.91;;;14.00;100.00
11987;BME280;6053;51.382;6.768;2023-03-19T06:12:23;100873.09;;;14.41;98.63
11987;BME280;6053;51.382;6.768;2023-03-19T06:14:51;100872.44;;;14.51;97.03
11987;BME280;6053;51.382;6.768;2023-03-19T06:17:19;100878.41;;;14.59;96.33
11987;BME280;6053;51.382;6.768;2023-03-19T06:19:48;100884.16;;;14.02;99.79
11987;BME280;6053;51.382;6.768;2023-03-19T06:22:16;100877.00;;;14.23;99.37
11987;BME280;6053;51.382;6.768;2023-03-19T06:24:45;100879.59;;;14.30;98.48
11987;BME280;6053;51.382;6.768;2023-03-19T06:27:15;100885.81;;;14.37;97.90
11987;BME280;6053;51.382;6.768;2023-03-19T06:29:43;100889.03;;;14.29;98.91
11987;BME280;6053;51.382;6.768;2023-03-19T06:32:12;100887.44;;;14.33;98.69
11987;BME280;6053;51.382;6.768;2023-03-19T06:34:40;100882.63;;;14.62;96.59
11987;BME280;6053;51.382;6.768;2023-03-19T06:37:09;100884.72;;;14.55;96.06
11987;BME280;6053;51.382;6.768;2023-03-19T06:39:37;100893.38;;;14.42;97.17
11987;BME280;6053;51.382;6.768;2023-03-19T06:42:06;100896.56;;;14.67;96.02
11987;BME280;6053;51.382;6.768;2023-03-19T06:44:36;100900.13;;;14.63;95.48
11987;BME280;6053;51.382;6.768;2023-03-19T06:47:04;100905.53;;;14.74;94.89
11987;BME280;6053;51.382;6.768;2023-03-19T06:49:34;100911.09;;;14.74;94.93
11987;BME280;6053;51.382;6.768;2023-03-19T06:52:03;100906.53;;;14.85;94.21
11987;BME280;6053;51.382;6.768;2023-03-19T06:54:32;100907.44;;;14.91;93.46
11987;BME280;6053;51.382;6.768;2023-03-19T06:57:04;100912.47;;;14.55;93.80
11987;BME280;6053;51.382;6.768;2023-03-19T06:59:32;100905.88;;;14.78;94.91
11987;BME280;6053;51.382;6.768;2023-03-19T07:02:02;100904.53;;;14.80;94.27
11987;BME280;6053;51.382;6.768;2023-03-19T07:04:31;100906.53;;;14.85;93.76
11987;BME280;6053;51.382;6.768;2023-03-19T07:07:00;100914.19;;;14.78;94.21
11987;BME280;6053;51.382;6.768;2023-03-19T07:09:28;100914.19;;;14.78;94.51
11987;BME280;6053;51.382;6.768;2023-03-19T07:11:57;100914.38;;;14.71;93.96
11987;BME280;6053;51.382;6.768;2023-03-19T07:14:25;100915.53;;;14.75;94.58
11987;BME280;6053;51.382;6.768;2023-03-19T07:16:54;100920.88;;;14.77;94.48
11987;BME280;6053;51.382;6.768;2023-03-19T07:19:24;100922.81;;;14.98;93.03
11987;BME280;6053;51.382;6.768;2023-03-19T07:21:52;100931.50;;;14.85;93.63
11987;BME280;6053;51.382;6.768;2023-03-19T07:24:20;100930.88;;;14.44;96.15
11987;BME280;6053;51.382;6.768;2023-03-19T07:26:49;100928.22;;;14.88;94.07
11987;BME280;6053;51.382;6.768;2023-03-19T07:29:18;100936.59;;;15.10;92.21
11987;BME280;6053;51.382;6.768;2023-03-19T07:31:46;100933.88;;;15.15;91.89
11987;BME280;6053;51.382;6.768;2023-03-19T07:34:14;100941.81;;;15.28;91.15
11987;BME280;6053;51.382;6.768;2023-03-19T07:36:44;100944.69;;;14.73;95.79
11987;BME280;6053;51.382;6.768;2023-03-19T07:39:13;100939.38;;;14.71;94.38
11987;BME280;6053;51.382;6.768;2023-03-19T07:41:42;100952.63;;;15.03;92.83
11987;BME280;6053;51.382;6.768;2023-03-19T07:44:14;100945.53;;;14.73;95.01
11987;BME280;6053;51.382;6.768;2023-03-19T07:46:43;100946.78;;;14.49;96.91
11987;BME280;6053;51.382;6.768;2023-03-19T07:49:11;100951.81;;;14.18;99.18
11987;BME280;6053;51.382;6.768;2023-03-19T07:51:39;100952.16;;;14.22;99.07
11987;BME280;6053;51.382;6.768;2023-03-19T07:54:09;100948.78;;;14.03;100.00
11987;BME280;6053;51.382;6.768;2023-03-19T07:56:37;100945.41;;;14.01;100.00
11987;BME280;6053;51.382;6.768;2023-03-19T07:59:06;100950.47;;;14.37;100.00
11987;BME280;6053;51.382;6.768;2023-03-19T08:01:35;100953.94;;;14.61;98.31
11987;BME280;6053;51.382;6.768;2023-03-19T08:04:03;100956.75;;;15.00;94.61
11987;BME280;6053;51.382;6.768;2023-03-19T08:06:32;100968.09;;;14.99;93.80
11987;BME280;6053;51.382;6.768;2023-03-19T08:09:00;100960.84;;;14.42;98.37
11987;BME280;6053;51.382;6.768;2023-03-19T08:11:30;100957.63;;;14.00;100.00
11987;BME280;6053;51.382;6.768;2023-03-19T08:13:58;100962.75;;;14.42;98.75
11987;BME280;6053;51.382;6.768;2023-03-19T08:16:26;100965.25;;;14.94;94.43
11987;BME280;6053;51.382;6.768;2023-03-19T08:18:55;100970.16;;;14.87;95.67
11987;BME280;6053;51.382;6.768;2023-03-19T08:21:23;100966.31;;;14.54;97.73
11987;BME280;6053;51.382;6.768;2023-03-19T08:23:52;100974.38;;;14.38;99.59
11987;BME280;6053;51.382;6.768;2023-03-19T08:26:20;100971.19;;;14.64;98.87
11987;BME280;6053;51.382;6.768;2023-03-19T08:28:50;100973.44;;;13.71;100.00
11987;BME280;6053;51.382;6.768;2023-03-19T08:31:19;100977.03;;;14.00;100.00
11987;BME280;6053;51.382;6.768;2023-03-19T08:33:48;100976.19;;;13.71;100.00
11987;BME280;6053;51.382;6.768;2023-03-19T08:36:16;100983.97;;;14.48;100.00
11987;BME280;6053;51.382;6.768;2023-03-19T08:38:44;100976.56;;;14.87;96.91
11987;BME280;6053;51.382;6.768;2023-03-19T08:41:13;100979.91;;;14.22;98.83
11987;BME280;6053;51.382;6.768;2023-03-19T08:43:41;100978.13;;;13.99;100.00
11987;BME280;6053;51.382;6.768;2023-03-19T08:46:11;100976.13;;;14.11;100.00
11987;BME280;6053;51.382;6.768;2023-03-19T08:48:39;100985.75;;;13.91;100.00
11987;BME280;6053;51.382;6.768;2023-03-19T08:51:08;100992.53;;;14.29;100.00
11987;BME280;6053;51.382;6.768;2023-03-19T08:53:37;100986.41;;;15.17;96.16
11987;BME280;6053;51.382;6.768;2023-03-19T08:56:07;100993.91;;;15.16;94.65
11987;BME280;6053;51.382;6.768;2023-03-19T08:58:35;100993.84;;;15.11;94.33
11987;BME280;6053;51.382;6.768;2023-03-19T09:01:06;100988.44;;;15.43;92.09
11987;BME280;6053;51.382;6.768;2023-03-19T09:03:38;100987.94;;;14.85;97.63
11987;BME280;6053;51.382;6.768;2023-03-19T09:06:09;100986.16;;;14.79;97.44
11987;BME280;6053;51.382;6.768;2023-03-19T09:08:38;100985.47;;;14.89;96.88
11987;BME280;6053;51.382;6.768;2023-03-19T09:11:06;100990.63;;;14.47;98.37
11987;BME280;6053;51.382;6.768;2023-03-19T09:13:36;100988.88;;;13.95;100.00
11987;BME280;6053;51.382;6.768;2023-03-19T09:16:05;100992.69;;;15.07;96.62
11987;BME280;6053;51.382;6.768;2023-03-19T09:18:34;100990.28;;;14.77;97.27
11987;BME280;6053;51.382;6.768;2023-03-19T09:21:04;100996.75;;;14.49;100.00
11987;BME280;6053;51.382;6.768;2023-03-19T09:23:34;100990.63;;;14.64;99.32
11987;BME280;6053;51.382;6.768;2023-03-19T09:26:03;101000.91;;;15.02;98.19
11987;BME280;6053;51.382;6.768;2023-03-19T09:28:32;100996.53;;;14.05;100.00
11987;BME280;6053;51.382;6.768;2023-03-19T09:31:00;100997.25;;;13.55;100.00
11987;BME280;6053;51.382;6.768;2023-03-19T09:33:33;101006.03;;;13.92;100.00
11987;BME280;6053;51.382;6.768;2023-03-19T09:36:01;101006.38;;;13.96;100.00
11987;BME280;6053;51.382;6.768;2023-03-19T09:38:31;101004.56;;;13.89;100.00
11987;BME280;6053;51.382;6.768;2023-03-19T09:41:09;101018.09;;;14.48;100.00
11987;BME280;6053;51.382;6.768;2023-03-19T09:44:02;101020.78;;;14.26;100.00
11987;BME280;6053;51.382;6.768;2023-03-19T09:46:37;101019.13;;;13.68;100.00
11987;BME280;6053;51.382;6.768;2023-03-19T09:49:16;101025.31;;;14.15;100.00
11987;BME280;6053;51.382;6.768;2023-03-19T09:51:51;101020.19;;;14.53;100.00
11987;BME280;6053;51.382;6.768;2023-03-19T09:54:28;101026.56;;;14.53;100.00
11987;BME280;6053;51.382;6.768;2023-03-19T09:56:58;101019.94;;;14.09;100.00
11987;BME280;6053;51.382;6.768;2023-03-19T09:59:27;101017.63;;;13.77;100.00
11987;BME280;6053;51.382;6.768;2023-03-19T10:02:03;101021.78;;;14.20;100.00
11987;BME280;6053;51.382;6.768;2023-03-19T10:04:45;101018.34;;;14.13;100.00
11987;BME280;6053;51.382;6.768;2023-03-19T10:07:40;101019.03;;;14.37;100.00
11987;BME280;6053;51.382;6.768;2023-03-19T10:10:44;101017.53;;;14.29;100.00
11987;BME280;6053;51.382;6.768;2023-03-19T10:13:33;101026.56;;;13.15;100.00
11987;BME280;6053;51.382;6.768;2023-03-19T10:16:04;101035.56;;;14.15;100.00
11987;BME280;6053;51.382;6.768;2023-03-19T10:18:34;101036.69;;;13.85;100.00
11987;BME280;6053;51.382;6.768;2023-03-19T10:21:10;101042.47;;;12.96;100.00
11987;BME280;6053;51.382;6.768;2023-03-19T10:23:43;101042.34;;;13.03;100.00
11987;BME280;6053;51.382;6.768;2023-03-19T10:26:17;101042.84;;;13.12;100.00
11987;BME280;6053;51.382;6.768;2023-03-19T10:28:58;101049.97;;;13.31;100.00
11987;BME280;6053;51.382;6.768;2023-03-19T10:31:48;101045.50;;;12.95;100.00
11987;BME280;6053;51.382;6.768;2023-03-19T10:34:28;101046.03;;;13.56;100.00
11987;BME280;6053;51.382;6.768;2023-03-19T10:37:01;101042.78;;;13.87;100.00
11987;BME280;6053;51.382;6.768;2023-03-19T10:39:33;101040.72;;;13.54;100.00
11987;BME280;6053;51.382;6.768;2023-03-19T10:45:08;101049.13;;;13.71;100.00
11987;BME280;6053;51.382;6.768;2023-03-19T10:47:42;101047.38;;;14.39;100.00
11987;BME280;6053;51.382;6.768;2023-03-19T10:50:16;101045.59;;;13.00;100.00
11987;BME280;6053;51.382;6.768;2023-03-19T10:52:49;101054.38;;;13.84;100.00
11987;BME280;6053;51.382;6.768;2023-03-19T10:55:24;101060.72;;;14.54;100.00
11987;BME280;6053;51.382;6.768;2023-03-19T10:58:03;101057.72;;;14.89;100.00
11987;BME280;6053;51.382;6.768;2023-03-19T11:00:33;101059.41;;;15.12;100.00
11987;BME280;6053;51.382;6.768;2023-03-19T11:03:02;101053.00;;;15.28;100.00
11987;BME280;6053;51.382;6.768;2023-03-19T11:05:32;101064.34;;;15.44;100.00
11987;BME280;6053;51.382;6.768;2023-03-19T11:08:04;101062.94;;;15.63;100.00
11987;BME280;6053;51.382;6.768;2023-03-19T11:10:35;101060.63;;;15.77;100.00
11987;BME280;6053;51.382;6.768;2023-03-19T11:13:14;101061.97;;;15.74;100.00
11987;BME280;6053;51.382;6.768;2023-03-19T11:15:47;101065.72;;;15.85;100.00
11987;BME280;6053;51.382;6.768;2023-03-19T11:18:20;101067.00;;;15.99;100.00
11987;BME280;6053;51.382;6.768;2023-03-19T11:20:55;101065.19;;;16.10;100.00
11987;BME280;6053;51.382;6.768;2023-03-19T11:23:28;101065.41;;;16.03;100.00
11987;BME280;6053;51.382;6.768;2023-03-19T11:25:59;101063.44;;;16.04;100.00
11987;BME280;6053;51.382;6.768;2023-03-19T11:28:30;101055.88;;;15.99;100.00
11987;BME280;6053;51.382;6.768;2023-03-19T11:31:05;101062.06;;;15.79;100.00
11987;BME280;6053;51.382;6.768;2023-03-19T11:33:51;101054.91;;;16.11;99.52
11987;BME280;6053;51.382;6.768;2023-03-19T11:36:27;101053.22;;;16.37;98.52
11987;BME280;6053;51.382;6.768;2023-03-19T11:39:11;101055.81;;;16.76;95.66
11987;BME280;6053;51.382;6.768;2023-03-19T11:41:56;101057.16;;;17.05;91.10
11987;BME280;6053;51.382;6.768;2023-03-19T11:44:34;101057.84;;;16.85;93.09
11987;BME280;6053;51.382;6.768;2023-03-19T11:47:14;101057.25;;;16.51;95.15
11987;BME280;6053;51.382;6.768;2023-03-19T11:50:15;101060.81;;;16.19;96.67
11987;BME280;6053;51.382;6.768;2023-03-19T11:53:02;101056.88;;;16.42;96.36
11987;BME280;6053;51.382;6.768;2023-03-19T11:55:40;101054.81;;;16.06;100.00
11987;BME280;6053;51.382;6.768;2023-03-19T11:58:34;101052.94;;;16.38;98.26
11987;BME280;6053;51.382;6.768;2023-03-19T12:01:15;101049.94;;;16.45;95.06
11987;BME280;6053;51.382;6.768;2023-03-19T12:04:14;101048.63;;;16.53;94.09
11987;BME280;6053;51.382;6.768;2023-03-19T12:06:56;101055.44;;;15.25;100.00
11987;BME280;6053;51.382;6.768;2023-03-19T12:09:37;101041.44;;;14.98;100.00
11987;BME280;6053;51.382;6.768;2023-03-19T12:12:15;101043.25;;;15.26;100.00
11987;BME280;6053;51.382;6.768;2023-03-19T12:15:00;101046.16;;;16.02;100.00
11987;BME280;6053;51.382;6.768;2023-03-19T12:17:43;101045.72;;;16.10;100.00
11987;BME280;6053;51.382;6.768;2023-03-19T12:20:40;101049.25;;;16.06;100.00
11987;BME280;6053;51.382;6.768;2023-03-19T12:23:37;101050.16;;;15.23;100.00
11987;BME280;6053;51.382;6.768;2023-03-19T12:26:16;101055.44;;;14.86;100.00
11987;BME280;6053;51.382;6.768;2023-03-19T12:28:53;101054.03;;;15.05;100.00
11987;BME280;6053;51.382;6.768;2023-03-19T12:31:42;101039.03;;;15.45;100.00
11987;BME280;6053;51.382;6.768;2023-03-19T12:34:22;101053.91;;;14.78;100.00
11987;BME280;6053;51.382;6.768;2023-03-19T12:37:04;101047.97;;;15.47;100.00
11987;BME280;6053;51.382;6.768;2023-03-19T12:39:39;101058.59;;;15.94;100.00
11987;BME280;6053;51.382;6.768;2023-03-19T12:42:11;101052.09;;;15.23;100.00
11987;BME280;6053;51.382;6.768;2023-03-19T12:44:47;101048.88;;;15.31;99.80
11987;BME280;6053;51.382;6.768;2023-03-19T12:47:22;101041.88;;;15.67;100.00
11987;BME280;6053;51.382;6.768;2023-03-19T12:49:57;101047.28;;;16.28;98.48
11987;BME280;6053;51.382;6.768;2023-03-19T12:52:34;101049.34;;;15.89;86.57
11987;BME280;6053;51.382;6.768;2023-03-19T12:55:12;101046.50;;;15.40;90.67
11987;BME280;6053;51.382;6.768;2023-03-19T12:57:46;101047.75;;;15.10;90.74
11987;BME280;6053;51.382;6.768;2023-03-19T13:00:21;101053.47;;;15.64;87.71
11987;BME280;6053;51.382;6.768;2023-03-19T13:02:59;101052.09;;;15.84;87.18
11987;BME280;6053;51.382;6.768;2023-03-19T13:05:35;101055.47;;;15.47;88.66
11987;BME280;6053;51.382;6.768;2023-03-19T13:08:11;101053.88;;;15.95;95.65
11987;BME280;6053;51.382;6.768;2023-03-19T13:10:42;101054.09;;;15.27;100.00
11987;BME280;6053;51.382;6.768;2023-03-19T13:13:27;101044.31;;;15.03;100.00
11987;BME280;6053;51.382;6.768;2023-03-19T13:16:05;101052.94;;;15.23;98.17
11987;BME280;6053;51.382;6.768;2023-03-19T13:18:40;101053.97;;;15.78;96.31
11987;BME280;6053;51.382;6.768;2023-03-19T13:21:21;101054.13;;;15.49;95.29
11987;BME280;6053;51.382;6.768;2023-03-19T13:24:02;101042.72;;;15.68;96.04